createdAt,value
2023-04-14T00:02:23.931Z,2.38
2023-04-14T00:04:54.065Z,2.60
2023-04-14T00:07:21.486Z,2.50
2023-04-14T00:09:48.261Z,2.05
2023-04-14T00:12:15.028Z,2.80
2023-04-14T00:14:43.148Z,2.85
2023-04-14T00:17:10.691Z,2.72
2023-04-14T00:19:37.748Z,2.90
2023-04-14T00:22:04.468Z,2.65
2023-04-14T00:24:31.285Z,2.90
2023-04-14T00:26:58.198Z,2.58
2023-04-14T00:29:25.386Z,2.53
2023-04-14T00:31:52.217Z,2.67
2023-04-14T00:34:19.079Z,2.70
2023-04-14T00:36:45.916Z,2.50
2023-04-14T00:39:12.598Z,2.78
2023-04-14T00:41:39.328Z,2.75
2023-04-14T00:44:06.134Z,2.90
2023-04-14T00:46:33.660Z,3.00
2023-04-14T00:49:01.654Z,2.78
2023-04-14T00:51:28.771Z,2.70
2023-04-14T00:53:56.498Z,3.10
2023-04-14T00:56:26.520Z,3.38
2023-04-14T00:58:53.910Z,3.58
2023-04-14T01:01:20.961Z,3.97
2023-04-14T01:03:48.458Z,4.05
2023-04-14T01:06:15.507Z,4.28
2023-04-14T01:29:24.393Z,4.25
2023-04-14T01:32:01.666Z,4.00
2023-04-14T01:34:51.882Z,4.57
2023-04-14T01:37:30.172Z,4.57
2023-04-14T01:40:01.435Z,4.70
2023-04-14T01:42:33.131Z,4.68
2023-04-14T01:45:15.636Z,4.45
2023-04-14T01:47:44.213Z,4.60
2023-04-14T01:50:12.232Z,4.35
2023-04-14T01:52:42.630Z,4.75
2023-04-14T01:55:10.747Z,5.18
2023-04-14T01:57:39.597Z,5.00
2023-04-14T02:00:09.184Z,5.22
2023-04-14T02:02:38.420Z,4.85
2023-04-14T02:05:08.351Z,5.18
2023-04-14T02:07:35.988Z,4.63
2023-04-14T02:10:06.499Z,5.60
2023-04-14T02:12:34.608Z,5.50
2023-04-14T02:15:02.429Z,6.60
2023-04-14T02:17:30.916Z,5.75
2023-04-14T02:20:00.824Z,5.60
2023-04-14T02:22:28.276Z,6.10
2023-04-14T02:24:55.573Z,5.82
2023-04-14T02:27:37.476Z,5.47
2023-04-14T02:30:14.699Z,5.90
2023-04-14T02:32:47.014Z,5.70
2023-04-14T02:35:27.840Z,5.90
2023-04-14T02:38:00.401Z,5.25
2023-04-14T02:40:31.230Z,4.70
2023-04-14T02:43:04.411Z,5.40
2023-04-14T02:45:33.961Z,5.30
2023-04-14T02:48:07.699Z,4.78
2023-04-14T02:50:35.732Z,5.30
2023-04-14T02:53:04.058Z,5.22
2023-04-14T02:55:31.719Z,4.97
2023-04-14T02:58:00.334Z,5.20
2023-04-14T03:00:28.172Z,5.30
2023-04-14T03:02:56.063Z,5.65
2023-04-14T03:05:24.545Z,5.47
2023-04-14T03:07:53.386Z,6.28
2023-04-14T03:10:21.571Z,6.05
2023-04-14T03:12:49.479Z,5.78
2023-04-14T03:15:18.267Z,6.25
2023-04-14T03:17:48.810Z,6.30
2023-04-14T03:20:20.104Z,5.72
2023-04-14T03:22:48.909Z,6.85
2023-04-14T03:25:16.187Z,6.57
2023-04-14T03:27:45.789Z,6.47
2023-04-14T03:30:14.531Z,6.05
2023-04-14T03:32:43.597Z,6.15
2023-04-14T03:35:13.097Z,7.22
2023-04-14T03:37:41.450Z,6.55
2023-04-14T03:40:13.734Z,6.20
2023-04-14T03:42:45.398Z,6.07
2023-04-14T03:45:12.912Z,6.15
2023-04-14T03:47:39.778Z,5.90
2023-04-14T03:50:10.175Z,6.03
2023-04-14T03:52:40.817Z,6.07
2023-04-14T03:55:12.430Z,6.05
2023-04-14T03:57:41.830Z,5.68
2023-04-14T04:00:10.267Z,5.97
2023-04-14T04:02:38.580Z,5.70
2023-04-14T04:05:07.534Z,5.88
2023-04-14T04:07:35.848Z,5.70
2023-04-14T04:10:05.692Z,5.60
2023-04-14T04:12:33.445Z,6.10
2023-04-14T04:15:01.005Z,5.60
2023-04-14T04:17:29.896Z,5.50
2023-04-14T04:19:58.581Z,5.72
2023-04-14T04:22:27.388Z,5.82
2023-04-14T04:24:56.030Z,5.80
2023-04-14T04:27:28.253Z,5.80
2023-04-14T04:47:41.250Z,5.85
2023-04-14T04:50:08.289Z,5.47
2023-04-14T04:52:35.042Z,5.68
2023-04-14T04:55:01.768Z,5.45
2023-04-14T04:57:28.466Z,5.30
2023-04-14T04:59:55.163Z,6.03
2023-04-14T05:02:22.004Z,6.05
2023-04-14T05:04:48.990Z,5.13
2023-04-14T05:07:15.952Z,5.63
2023-04-14T05:09:42.705Z,5.30
2023-04-14T05:12:09.471Z,5.28
2023-04-14T05:14:37.435Z,6.05
2023-04-14T05:17:04.350Z,5.50
2023-04-14T05:19:31.141Z,6.50
2023-04-14T05:21:57.911Z,6.68
2023-04-14T05:24:24.751Z,7.00
2023-04-14T05:26:58.349Z,6.57
2023-04-14T05:29:38.422Z,6.47
2023-04-14T05:32:05.376Z,6.90
2023-04-14T05:34:32.091Z,6.40
2023-04-14T05:36:58.944Z,5.88
2023-04-14T05:39:25.726Z,5.35
2023-04-14T05:41:52.437Z,5.15
2023-04-14T05:44:19.209Z,5.43
2023-04-14T05:46:46.550Z,5.10
2023-04-14T05:49:13.353Z,5.05
2023-04-14T05:51:40.912Z,4.75
2023-04-14T05:54:07.731Z,5.03
2023-04-14T05:56:35.063Z,4.70
2023-04-14T05:59:01.861Z,4.47
2023-04-14T06:01:28.752Z,4.97
2023-04-14T06:03:55.759Z,4.63
2023-04-14T06:06:22.782Z,4.30
2023-04-14T06:08:49.724Z,4.53
2023-04-14T06:11:16.379Z,4.05
2023-04-14T06:13:43.175Z,4.53
2023-04-14T06:16:09.947Z,5.00
2023-04-14T06:18:36.687Z,4.38
2023-04-14T06:21:03.592Z,4.72
2023-04-14T06:23:31.405Z,5.43
2023-04-14T06:25:58.366Z,5.30
2023-04-14T06:28:26.440Z,4.82
2023-04-14T06:30:53.249Z,4.72
2023-04-14T06:33:20.051Z,3.65
2023-04-14T06:35:47.079Z,4.55
2023-04-14T06:38:13.840Z,4.07
2023-04-14T06:40:40.872Z,4.07
2023-04-14T06:43:10.953Z,4.38
2023-04-14T06:45:38.086Z,4.38
2023-04-14T06:48:05.355Z,4.20
2023-04-14T06:50:32.124Z,3.72
2023-04-14T06:52:58.909Z,3.75
2023-04-14T06:55:25.603Z,3.72
2023-04-14T06:57:53.236Z,4.95
2023-04-14T07:00:20.334Z,3.45
2023-04-14T07:02:47.159Z,3.67
2023-04-14T07:05:14.685Z,3.80
2023-04-14T07:07:41.660Z,3.65
2023-04-14T07:10:08.895Z,3.17
2023-04-14T07:12:36.574Z,3.30
2023-04-14T07:15:03.718Z,3.08
2023-04-14T07:17:30.746Z,3.33
2023-04-14T07:19:58.233Z,3.35
2023-04-14T07:22:25.063Z,3.03
2023-04-14T07:24:51.998Z,3.00
2023-04-14T07:27:18.700Z,2.47
2023-04-14T07:29:45.511Z,3.10
2023-04-14T07:32:13.278Z,2.97
2023-04-14T07:34:43.702Z,2.85
2023-04-14T07:37:11.237Z,2.78
2023-04-14T07:39:38.413Z,2.72
2023-04-14T07:42:05.496Z,2.80
2023-04-14T07:44:33.212Z,2.90
2023-04-14T07:47:01.228Z,2.90
2023-04-14T07:49:28.098Z,2.95
2023-04-14T07:51:54.824Z,2.75
2023-04-14T07:54:22.147Z,3.30
2023-04-14T07:56:49.329Z,3.45
2023-04-14T07:59:16.072Z,3.22
2023-04-14T08:01:43.045Z,3.22
2023-04-14T08:04:10.233Z,3.15
2023-04-14T08:06:37.230Z,2.90
2023-04-14T08:09:04.147Z,3.08
2023-04-14T08:11:31.144Z,3.42
2023-04-14T08:13:57.993Z,3.20
2023-04-14T08:16:25.309Z,3.17
2023-04-14T08:18:53.177Z,3.35
2023-04-14T08:21:20.966Z,3.10
2023-04-14T08:23:47.804Z,3.70
2023-04-14T08:26:14.539Z,3.33
2023-04-14T08:28:42.056Z,3.50
2023-04-14T08:31:08.854Z,3.33
2023-04-14T08:33:35.719Z,3.15
2023-04-14T08:36:02.547Z,3.45
2023-04-14T08:38:29.527Z,3.80
2023-04-14T08:40:57.101Z,3.50
2023-04-14T08:43:24.243Z,3.60
2023-04-14T08:45:52.232Z,3.70
2023-04-14T08:48:27.024Z,3.70
2023-04-14T08:51:18.829Z,3.67
2023-04-14T08:53:48.790Z,3.72
2023-04-14T08:56:18.612Z,3.55
2023-04-14T08:58:47.343Z,3.45
2023-04-14T09:01:14.875Z,3.67
2023-04-14T09:03:42.093Z,3.03
2023-04-14T09:06:09.518Z,3.38
2023-04-14T09:08:36.514Z,3.33
2023-04-14T09:11:04.024Z,3.05
2023-04-14T09:13:31.663Z,2.85
2023-04-14T09:16:00.186Z,2.97
2023-04-14T09:18:29.104Z,3.42
2023-04-14T09:21:50.182Z,3.72
2023-04-14T09:23:46.309Z,3.33
2023-04-14T09:26:13.558Z,3.30
2023-04-14T09:28:41.191Z,3.17
2023-04-14T09:31:09.292Z,3.53
2023-04-14T09:33:43.335Z,3.20
2023-04-14T09:36:21.123Z,2.80
2023-04-14T09:38:49.959Z,3.35
2023-04-14T09:41:18.967Z,2.92
2023-04-14T09:43:46.158Z,3.40
2023-04-14T09:46:12.994Z,3.17
2023-04-14T09:48:56.268Z,3.17
2023-04-14T09:51:27.892Z,3.05
2023-04-14T09:53:54.720Z,3.58
2023-04-14T09:56:26.831Z,3.10
2023-04-14T09:58:58.638Z,3.50
2023-04-14T10:01:33.789Z,3.42
2023-04-14T10:04:03.133Z,3.33
2023-04-14T10:06:33.678Z,3.45
2023-04-14T10:09:01.971Z,3.35
2023-04-14T10:11:33.007Z,3.10
2023-04-14T10:14:04.083Z,2.95
2023-04-14T10:16:31.593Z,3.67
2023-04-14T10:18:58.818Z,3.40
2023-04-14T10:21:27.840Z,3.60
2023-04-14T10:23:57.383Z,2.90
2023-04-14T10:26:24.072Z,2.65
2023-04-14T10:28:53.091Z,2.88
2023-04-14T10:31:25.194Z,2.60
2023-04-14T10:33:52.557Z,3.05
2023-04-14T10:36:30.817Z,2.92
2023-04-14T10:39:05.419Z,2.75
2023-04-14T10:41:46.013Z,2.45
2023-04-14T10:44:34.604Z,2.65
2023-04-14T10:47:07.688Z,2.80
2023-04-14T10:49:39.326Z,2.45
2023-04-14T10:52:27.530Z,2.80
2023-04-14T10:55:00.915Z,2.47
2023-04-14T10:57:29.597Z,2.50
2023-04-14T10:59:58.882Z,2.33
2023-04-14T11:02:31.119Z,2.53
2023-04-14T11:05:10.545Z,2.50
2023-04-14T11:07:40.206Z,2.30
2023-04-14T11:10:22.850Z,2.22
2023-04-14T11:12:56.468Z,2.42
2023-04-14T11:15:23.388Z,2.30
2023-04-14T11:17:51.599Z,2.10
2023-04-14T11:20:22.097Z,2.00
2023-04-14T11:22:51.053Z,2.03
2023-04-14T11:25:23.064Z,2.40
2023-04-14T11:27:52.211Z,2.33
2023-04-14T11:30:20.377Z,2.25
2023-04-14T11:32:51.667Z,2.17
2023-04-14T11:35:19.804Z,2.47
2023-04-14T11:37:47.177Z,2.10
2023-04-14T11:40:15.701Z,2.05
2023-04-14T11:42:49.326Z,2.13
2023-04-14T11:45:16.334Z,2.10
2023-04-14T11:48:03.426Z,2.20
2023-04-14T11:50:32.889Z,1.75
2023-04-14T11:53:00.618Z,2.25
2023-04-14T11:55:28.889Z,2.13
2023-04-14T11:57:59.351Z,1.85
2023-04-14T12:00:27.633Z,1.65
2023-04-14T12:02:55.204Z,1.70
2023-04-14T12:05:25.521Z,1.50
2023-04-14T12:07:59.002Z,1.52
2023-04-14T12:10:27.711Z,1.65
2023-04-14T12:13:06.985Z,1.45
2023-04-14T12:15:39.139Z,1.58
2023-04-14T12:18:09.657Z,1.98
2023-04-14T12:20:46.593Z,1.48
2023-04-14T12:23:13.440Z,1.55
2023-04-14T12:25:40.485Z,1.40
2023-04-14T12:28:07.406Z,1.60
2023-04-14T12:30:37.842Z,1.60
2023-04-14T12:33:12.260Z,1.73
2023-04-14T12:35:40.547Z,1.80
2023-04-14T12:38:14.656Z,1.50
2023-04-14T12:40:47.841Z,1.80
2023-04-14T12:43:17.278Z,1.60
2023-04-14T12:45:48.784Z,1.52
2023-04-14T12:48:17.634Z,1.55
2023-04-14T12:50:45.168Z,1.52
2023-04-14T12:53:28.886Z,1.60
2023-04-14T12:56:10.334Z,1.45
2023-04-14T12:58:39.477Z,1.60
2023-04-14T13:01:10.914Z,1.48
2023-04-14T13:03:43.401Z,1.48
2023-04-14T13:06:11.522Z,1.45
2023-04-14T13:29:13.118Z,1.15
2023-04-14T13:31:40.885Z,1.15
2023-04-14T13:34:07.705Z,1.23
2023-04-14T13:36:34.624Z,1.42
2023-04-14T13:39:02.272Z,1.10
2023-04-14T13:41:29.281Z,1.25
2023-04-14T13:43:56.236Z,1.23
2023-04-14T13:46:23.252Z,1.23
2023-04-14T13:48:50.069Z,1.25
2023-04-14T13:51:16.994Z,1.15
2023-04-14T13:53:43.855Z,1.13
2023-04-14T13:56:11.257Z,1.13
2023-04-14T13:58:38.556Z,1.05
2023-04-14T14:01:12.231Z,1.30
2023-04-14T14:03:42.846Z,0.90
2023-04-14T14:06:10.008Z,1.02
2023-04-14T14:08:42.050Z,1.20
2023-04-14T14:11:10.754Z,1.02
2023-04-14T14:13:39.221Z,1.23
2023-04-14T14:16:07.898Z,1.25
2023-04-14T14:18:38.397Z,1.20
2023-04-14T14:21:05.658Z,1.20
2023-04-14T14:23:32.599Z,1.00
2023-04-14T14:26:00.736Z,1.10
2023-04-14T14:28:27.686Z,1.20
2023-04-14T14:30:54.615Z,1.40
2023-04-14T14:33:21.434Z,1.00
2023-04-14T14:35:48.406Z,1.00
2023-04-14T14:38:15.393Z,1.00
2023-04-14T14:40:42.101Z,1.02
2023-04-14T14:43:08.919Z,0.85
2023-04-14T14:45:35.982Z,1.00
2023-04-14T14:48:02.937Z,1.00
2023-04-14T14:50:29.660Z,1.00
2023-04-14T14:52:57.026Z,0.90
2023-04-14T14:55:24.103Z,0.90
2023-04-14T14:57:51.289Z,1.00
2023-04-14T15:00:18.949Z,0.85
2023-04-14T15:02:48.405Z,0.98
2023-04-14T15:05:15.582Z,0.88
2023-04-14T15:07:42.818Z,1.00
2023-04-14T15:10:09.664Z,1.05
2023-04-14T15:12:36.519Z,1.25
2023-04-14T15:15:03.970Z,1.05
2023-04-14T15:17:31.405Z,1.27
2023-04-14T15:20:03.539Z,1.30
2023-04-14T15:22:31.168Z,1.02
2023-04-14T15:24:58.685Z,1.00
2023-04-14T15:27:25.483Z,1.20
2023-04-14T15:29:52.823Z,1.10
2023-04-14T15:32:25.096Z,0.93
2023-04-14T15:34:54.943Z,0.95
2023-04-14T15:37:22.106Z,1.13
2023-04-14T15:39:48.931Z,1.10
2023-04-14T15:42:15.701Z,1.10
2023-04-14T15:44:42.442Z,1.00
2023-04-14T15:47:09.193Z,1.13
2023-04-14T15:49:36.167Z,1.00
2023-04-14T15:52:03.063Z,1.20
2023-04-14T15:54:29.943Z,0.70
2023-04-14T15:56:56.902Z,0.98
2023-04-14T15:59:24.893Z,1.15
2023-04-14T16:01:53.322Z,0.98
2023-04-14T16:04:20.570Z,1.20
2023-04-14T16:06:47.862Z,0.88
2023-04-14T16:09:14.748Z,1.00
2023-04-14T16:11:41.978Z,0.93
2023-04-14T16:14:09.113Z,1.00
2023-04-14T16:16:36.793Z,1.10
2023-04-14T16:19:03.765Z,1.05
2023-04-14T16:21:30.668Z,1.30
2023-04-14T16:23:57.407Z,1.20
2023-04-14T16:26:25.319Z,1.10
2023-04-14T16:55:26.484Z,1.30
2023-04-14T16:57:53.437Z,1.00
2023-04-14T17:00:21.245Z,1.40
2023-04-14T17:02:48.163Z,1.42
2023-04-14T17:05:16.118Z,1.35
2023-04-14T17:07:43.400Z,1.08
2023-04-14T17:10:10.822Z,1.05
2023-04-14T17:12:37.685Z,1.10
2023-04-14T17:15:05.283Z,1.10
2023-04-14T17:17:32.386Z,0.90
2023-04-14T17:19:59.543Z,0.90
2023-04-14T17:22:27.631Z,0.90
2023-04-14T17:24:54.842Z,1.13
2023-04-14T17:27:22.303Z,1.10
2023-04-14T17:29:49.033Z,1.23
2023-04-14T17:32:16.606Z,1.10
2023-04-14T17:34:43.730Z,1.08
2023-04-14T17:37:11.019Z,1.00
2023-04-14T17:39:38.178Z,1.08
2023-04-14T17:42:05.146Z,1.08
2023-04-14T17:44:33.989Z,1.30
2023-04-14T17:47:04.437Z,1.20
2023-04-14T17:49:31.790Z,1.50
2023-04-14T17:51:58.667Z,0.98
2023-04-14T17:54:25.803Z,1.00
2023-04-14T17:56:52.783Z,1.20
2023-04-14T17:59:20.368Z,1.10
2023-04-14T18:01:47.197Z,1.00
2023-04-14T18:04:14.169Z,1.00
2023-04-14T18:06:41.600Z,0.93
2023-04-14T18:09:09.189Z,1.00
2023-04-14T18:11:36.882Z,1.05
2023-04-14T18:14:04.509Z,1.13
2023-04-14T18:16:31.522Z,1.00
2023-04-14T18:18:58.867Z,1.10
2023-04-14T18:21:27.495Z,1.48
2023-04-14T18:26:27.431Z,2.45
2023-04-14T18:28:55.691Z,2.10
2023-04-14T18:31:22.727Z,2.20
2023-04-14T18:33:49.570Z,2.22
2023-04-14T18:36:16.428Z,2.60
2023-04-14T18:38:43.206Z,4.55
2023-04-14T18:41:10.616Z,4.20
2023-04-14T18:43:37.998Z,3.25
2023-04-14T18:46:04.850Z,2.92
2023-04-14T18:48:31.992Z,2.53
2023-04-14T18:51:02.404Z,2.28
2023-04-14T18:53:29.488Z,1.83
2023-04-14T18:55:57.334Z,1.83
2023-04-14T18:58:24.163Z,1.80
2023-04-14T19:00:51.406Z,1.48
2023-04-14T19:03:18.606Z,2.03
2023-04-14T19:05:46.707Z,1.60
2023-04-14T19:08:13.500Z,1.50
2023-04-14T19:10:40.639Z,2.60
2023-04-14T19:13:07.561Z,1.90
2023-04-14T19:15:34.831Z,2.40
2023-04-14T19:18:01.698Z,3.42
2023-04-14T19:20:28.468Z,2.53
2023-04-14T19:22:55.397Z,1.85
2023-04-14T19:25:22.465Z,1.80
2023-04-14T19:27:49.370Z,3.45
2023-04-14T19:30:16.192Z,2.70
2023-04-14T19:32:43.184Z,1.80
2023-04-14T19:35:10.729Z,2.00
2023-04-14T19:37:38.351Z,2.42
2023-04-14T19:40:06.858Z,2.35
2023-04-14T19:42:34.025Z,1.95
2023-04-14T19:45:01.120Z,2.00
2023-04-14T19:47:28.194Z,2.40
2023-04-14T19:49:55.277Z,2.78
2023-04-14T19:52:22.510Z,2.60
2023-04-14T19:54:49.714Z,2.55
2023-04-14T19:57:16.841Z,2.65
2023-04-14T19:59:44.251Z,2.67
2023-04-14T20:02:13.381Z,2.70
2023-04-14T20:04:40.651Z,3.53
2023-04-14T20:07:07.816Z,3.13
2023-04-14T20:09:35.736Z,3.47
2023-04-14T20:12:05.725Z,3.50
2023-04-14T20:14:32.982Z,2.90
2023-04-14T20:17:01.011Z,2.70
2023-04-14T20:19:28.032Z,2.28
2023-04-14T20:21:54.808Z,2.83
2023-04-14T20:24:21.781Z,2.83
2023-04-14T20:26:48.556Z,2.55
2023-04-14T20:29:18.749Z,3.00
2023-04-14T20:31:46.450Z,3.58
2023-04-14T20:34:13.444Z,3.60
2023-04-14T20:36:40.402Z,3.88
2023-04-14T20:39:07.375Z,3.53
2023-04-14T20:41:34.718Z,3.00
2023-04-14T20:44:01.688Z,3.30
2023-04-14T20:46:28.908Z,3.03
2023-04-14T20:48:56.682Z,3.05
2023-04-14T20:51:23.684Z,2.88
2023-04-14T20:53:50.895Z,2.90
2023-04-14T20:56:17.914Z,3.20
2023-04-14T20:58:45.735Z,2.70
2023-04-14T21:01:12.667Z,3.10
2023-04-14T21:03:40.202Z,2.50
2023-04-14T21:06:07.157Z,2.38
2023-04-14T21:08:34.006Z,2.75
2023-04-14T21:11:14.326Z,2.28
2023-04-14T21:15:26.406Z,2.47
2023-04-14T21:16:30.600Z,2.30
2023-04-14T21:18:57.501Z,2.25
2023-04-14T21:21:24.605Z,2.50
2023-04-14T21:23:51.349Z,2.60
2023-04-14T21:26:18.722Z,2.40
2023-04-14T21:28:45.694Z,2.78
2023-04-14T21:31:12.489Z,2.65
2023-04-14T21:33:41.607Z,2.60
2023-04-14T21:36:09.700Z,2.38
2023-04-14T21:38:38.531Z,2.80
2023-04-14T21:41:07.933Z,2.83
2023-04-14T21:43:34.938Z,2.90
2023-04-14T21:46:01.794Z,3.00
2023-04-14T21:48:28.855Z,3.25
2023-04-14T21:50:55.608Z,3.00
2023-04-14T21:53:22.710Z,2.78
2023-04-14T21:56:09.015Z,3.25
2023-04-14T21:58:36.659Z,3.47
2023-04-14T22:01:03.717Z,3.10
2023-04-14T22:03:30.683Z,2.85
2023-04-14T22:05:57.645Z,3.05
2023-04-14T22:08:24.636Z,3.08
2023-04-14T22:10:53.062Z,2.95
2023-04-14T22:13:19.951Z,3.17
2023-04-14T22:15:46.863Z,2.50
2023-04-14T22:18:13.769Z,2.75
2023-04-14T22:20:40.526Z,2.88
2023-04-14T22:23:08.023Z,2.55
2023-04-14T22:25:35.506Z,2.92
2023-04-14T22:28:02.248Z,2.95
2023-04-14T22:30:29.963Z,2.22
2023-04-14T22:32:57.347Z,2.50
2023-04-14T22:35:24.297Z,2.42
2023-04-14T22:37:51.710Z,2.30
2023-04-14T22:40:18.488Z,2.70
2023-04-14T22:42:45.337Z,2.78
2023-04-14T22:45:12.467Z,2.53
2023-04-14T22:47:39.331Z,2.78
2023-04-14T22:50:06.900Z,2.80
2023-04-14T22:52:33.737Z,2.60
2023-04-14T22:55:00.608Z,2.78
2023-04-14T22:57:27.715Z,2.60
2023-04-14T22:59:54.671Z,2.90
2023-04-14T23:02:21.989Z,2.67
2023-04-14T23:04:48.945Z,2.30
2023-04-14T23:07:19.834Z,2.30
2023-04-14T23:09:46.735Z,2.70
2023-04-14T23:12:13.747Z,2.22
2023-04-14T23:14:40.727Z,2.75
2023-04-14T23:17:07.560Z,2.78
2023-04-14T23:19:35.774Z,2.63
2023-04-14T23:22:04.418Z,2.58
2023-04-14T23:24:31.417Z,2.60
2023-04-14T23:26:58.295Z,2.55
2023-04-14T23:29:25.078Z,2.85
2023-04-14T23:31:51.891Z,2.72
2023-04-14T23:34:18.686Z,2.47
2023-04-14T23:36:48.521Z,2.38
2023-04-14T23:39:15.409Z,2.83
2023-04-14T23:41:42.648Z,2.67
2023-04-14T23:44:09.454Z,2.45
2023-04-14T23:46:36.303Z,2.15
2023-04-14T23:49:24.408Z,2.30
2023-04-14T23:51:49.757Z,2.35
2023-04-14T23:54:16.549Z,2.22
2023-04-14T23:56:43.292Z,2.95
2023-04-14T23:59:10.037Z,2.90
